sensor_id;sensor_type;location;lat;lon;timestamp;P1;durP1;ratioP1;P2;durP2;ratioP2
23747;SDS011;12054;53.662;10.126;2022-11-09T00:02:16;3.88;;;1.90;;
23747;SDS011;12054;53.662;10.126;2022-11-09T00:04:42;2.88;;;1.73;;
23747;SDS011;12054;53.662;10.126;2022-11-09T00:07:08;3.58;;;2.00;;
23747;SDS011;12054;53.662;10.126;2022-11-09T00:09:33;3.38;;;1.92;;
23747;SDS011;12054;53.662;10.126;2022-11-09T00:11:59;4.78;;;2.08;;
23747;SDS011;12054;53.662;10.126;2022-11-09T00:14:28;4.28;;;2.05;;
23747;SDS011;12054;53.662;10.126;2022-11-09T00:16:54;3.83;;;1.83;;
23747;SDS011;12054;53.662;10.126;2022-11-09T00:19:20;3.35;;;1.63;;
23747;SDS011;12054;53.662;10.126;2022-11-09T00:21:46;4.80;;;1.98;;
23747;SDS011;12054;53.662;10.126;2022-11-09T00:24:12;2.90;;;1.77;;
23747;SDS011;12054;53.662;10.126;2022-11-09T00:26:37;2.70;;;1.88;;
23747;SDS011;12054;53.662;10.126;2022-11-09T00:29:03;2.92;;;1.90;;
23747;SDS011;12054;53.662;10.126;2022-11-09T00:31:29;2.80;;;1.67;;
23747;SDS011;12054;53.662;10.126;2022-11-09T00:33:55;3.65;;;1.80;;
23747;SDS011;12054;53.662;10.126;2022-11-09T00:36:21;3.60;;;2.00;;
23747;SDS011;12054;53.662;10.126;2022-11-09T00:38:49;2.70;;;1.92;;
23747;SDS011;12054;53.662;10.126;2022-11-09T00:41:16;2.95;;;1.98;;
23747;SDS011;12054;53.662;10.126;2022-11-09T00:43:42;2.25;;;1.52;;
23747;SDS011;12054;53.662;10.126;2022-11-09T00:46:08;3.03;;;2.03;;
23747;SDS011;12054;53.662;10.126;2022-11-09T00:48:34;4.38;;;2.17;;
23747;SDS011;12054;53.662;10.126;2022-11-09T00:51:00;4.00;;;1.70;;
23747;SDS011;12054;53.662;10.126;2022-11-09T00:53:26;4.18;;;2.10;;
23747;SDS011;12054;53.662;10.126;2022-11-09T00:56:01;3.03;;;1.90;;
23747;SDS011;12054;53.662;10.126;2022-11-09T00:58:29;3.17;;;1.98;;
23747;SDS011;12054;53.662;10.126;2022-11-09T01:00:57;2.20;;;1.70;;
23747;SDS011;12054;53.662;10.126;2022-11-09T01:03:24;2.30;;;1.70;;
23747;SDS011;12054;53.662;10.126;2022-11-09T01:05:51;4.22;;;1.85;;
23747;SDS011;12054;53.662;10.126;2022-11-09T01:08:18;3.58;;;1.90;;
23747;SDS011;12054;53.662;10.126;2022-11-09T01:10:44;5.05;;;2.17;;
23747;SDS011;12054;53.662;10.126;2022-11-09T01:13:11;3.13;;;1.80;;
23747;SDS011;12054;53.662;10.126;2022-11-09T01:15:39;2.20;;;1.77;;
23747;SDS011;12054;53.662;10.126;2022-11-09T01:18:09;3.75;;;1.90;;
23747;SDS011;12054;53.662;10.126;2022-11-09T01:20:40;3.38;;;1.98;;
23747;SDS011;12054;53.662;10.126;2022-11-09T01:23:07;3.70;;;1.88;;
23747;SDS011;12054;53.662;10.126;2022-11-09T01:25:34;3.92;;;1.83;;
23747;SDS011;12054;53.662;10.126;2022-11-09T01:28:02;5.65;;;2.10;;
23747;SDS011;12054;53.662;10.126;2022-11-09T01:30:28;2.95;;;1.88;;
23747;SDS011;12054;53.662;10.126;2022-11-09T01:32:54;3.00;;;1.80;;
23747;SDS011;12054;53.662;10.126;2022-11-09T01:35:20;4.22;;;1.70;;
23747;SDS011;12054;53.662;10.126;2022-11-09T01:37:46;2.15;;;1.88;;
23747;SDS011;12054;53.662;10.126;2022-11-09T01:40:11;3.25;;;1.98;;
23747;SDS011;12054;53.662;10.126;2022-11-09T01:42:37;3.38;;;1.88;;
23747;SDS011;12054;53.662;10.126;2022-11-09T01:47:41;4.30;;;1.80;;
23747;SDS011;12054;53.662;10.126;2022-11-09T01:50:07;3.85;;;1.90;;
23747;SDS011;12054;53.662;10.126;2022-11-09T01:52:36;3.22;;;1.77;;
23747;SDS011;12054;53.662;10.126;2022-11-09T01:55:07;2.40;;;1.90;;
23747;SDS011;12054;53.662;10.126;2022-11-09T01:57:37;5.55;;;2.63;;
23747;SDS011;12054;53.662;10.126;2022-11-09T02:00:08;4.10;;;1.92;;
23747;SDS011;12054;53.662;10.126;2022-11-09T02:02:37;4.13;;;1.70;;
23747;SDS011;12054;53.662;10.126;2022-11-09T02:05:09;3.15;;;1.73;;
23747;SDS011;12054;53.662;10.126;2022-11-09T02:07:38;3.75;;;1.92;;
23747;SDS011;12054;53.662;10.126;2022-11-09T02:12:46;2.83;;;1.80;;
23747;SDS011;12054;53.662;10.126;2022-11-09T02:15:12;4.85;;;2.05;;
23747;SDS011;12054;53.662;10.126;2022-11-09T02:17:39;3.55;;;1.98;;
23747;SDS011;12054;53.662;10.126;2022-11-09T02:20:07;2.95;;;2.13;;
23747;SDS011;12054;53.662;10.126;2022-11-09T02:22:38;3.08;;;1.90;;
23747;SDS011;12054;53.662;10.126;2022-11-09T02:25:05;3.42;;;2.25;;
23747;SDS011;12054;53.662;10.126;2022-11-09T02:27:32;3.85;;;2.00;;
23747;SDS011;12054;53.662;10.126;2022-11-09T02:29:58;4.30;;;2.20;;
23747;SDS011;12054;53.662;10.126;2022-11-09T02:32:25;2.72;;;1.80;;
23747;SDS011;12054;53.662;10.126;2022-11-09T02:34:53;4.70;;;2.00;;
23747;SDS011;12054;53.662;10.126;2022-11-09T02:39:55;2.08;;;1.88;;
23747;SDS011;12054;53.662;10.126;2022-11-09T02:42:22;3.05;;;1.80;;
23747;SDS011;12054;53.662;10.126;2022-11-09T02:44:50;3.65;;;1.90;;
23747;SDS011;12054;53.662;10.126;2022-11-09T02:47:20;3.75;;;2.15;;
23747;SDS011;12054;53.662;10.126;2022-11-09T02:49:46;3.10;;;1.80;;
23747;SDS011;12054;53.662;10.126;2022-11-09T02:52:11;2.58;;;1.95;;
23747;SDS011;12054;53.662;10.126;2022-11-09T02:54:37;3.45;;;1.80;;
23747;SDS011;12054;53.662;10.126;2022-11-09T02:57:02;3.50;;;1.95;;
23747;SDS011;12054;53.662;10.126;2022-11-09T02:59:30;3.55;;;2.10;;
23747;SDS011;12054;53.662;10.126;2022-11-09T03:01:56;2.40;;;1.85;;
23747;SDS011;12054;53.662;10.126;2022-11-09T03:04:21;2.78;;;1.90;;
23747;SDS011;12054;53.662;10.126;2022-11-09T03:06:47;2.53;;;2.00;;
23747;SDS011;12054;53.662;10.126;2022-11-09T03:09:14;4.22;;;2.00;;
23747;SDS011;12054;53.662;10.126;2022-11-09T03:11:40;3.90;;;2.15;;
23747;SDS011;12054;53.662;10.126;2022-11-09T03:14:07;4.13;;;2.13;;
23747;SDS011;12054;53.662;10.126;2022-11-09T03:16:37;2.95;;;1.73;;
23747;SDS011;12054;53.662;10.126;2022-11-09T03:19:04;3.80;;;2.03;;
23747;SDS011;12054;53.662;10.126;2022-11-09T03:21:30;3.38;;;2.22;;
23747;SDS011;12054;53.662;10.126;2022-11-09T03:23:55;4.65;;;2.17;;
23747;SDS011;12054;53.662;10.126;2022-11-09T03:26:21;5.78;;;1.90;;
23747;SDS011;12054;53.662;10.126;2022-11-09T03:28:47;3.17;;;2.10;;
23747;SDS011;12054;53.662;10.126;2022-11-09T03:31:12;2.65;;;1.95;;
23747;SDS011;12054;53.662;10.126;2022-11-09T03:33:39;3.72;;;2.03;;
23747;SDS011;12054;53.662;10.126;2022-11-09T03:36:07;3.67;;;2.03;;
23747;SDS011;12054;53.662;10.126;2022-11-09T03:38:33;3.05;;;2.03;;
23747;SDS011;12054;53.662;10.126;2022-11-09T03:40:59;3.90;;;2.30;;
23747;SDS011;12054;53.662;10.126;2022-11-09T03:43:25;4.13;;;2.10;;
23747;SDS011;12054;53.662;10.126;2022-11-09T03:45:52;4.32;;;2.00;;
23747;SDS011;12054;53.662;10.126;2022-11-09T03:48:18;3.05;;;2.10;;
23747;SDS011;12054;53.662;10.126;2022-11-09T03:50:45;4.15;;;2.20;;
23747;SDS011;12054;53.662;10.126;2022-11-09T03:53:11;5.35;;;2.20;;
23747;SDS011;12054;53.662;10.126;2022-11-09T03:55:37;2.22;;;2.00;;
23747;SDS011;12054;53.662;10.126;2022-11-09T03:58:04;3.30;;;1.85;;
23747;SDS011;12054;53.662;10.126;2022-11-09T04:00:30;2.80;;;2.28;;
23747;SDS011;12054;53.662;10.126;2022-11-09T04:02:56;2.72;;;1.88;;
23747;SDS011;12054;53.662;10.126;2022-11-09T04:05:22;3.13;;;1.95;;
23747;SDS011;12054;53.662;10.126;2022-11-09T04:07:49;3.00;;;2.17;;
23747;SDS011;12054;53.662;10.126;2022-11-09T04:10:17;2.78;;;1.83;;
23747;SDS011;12054;53.662;10.126;2022-11-09T04:12:43;4.03;;;2.00;;
23747;SDS011;12054;53.662;10.126;2022-11-09T04:15:09;2.53;;;2.20;;
23747;SDS011;12054;53.662;10.126;2022-11-09T04:17:35;2.75;;;2.13;;
23747;SDS011;12054;53.662;10.126;2022-11-09T04:20:00;4.45;;;2.60;;
23747;SDS011;12054;53.662;10.126;2022-11-09T04:22:26;6.25;;;2.92;;
23747;SDS011;12054;53.662;10.126;2022-11-09T04:24:51;4.25;;;2.30;;
23747;SDS011;12054;53.662;10.126;2022-11-09T04:27:17;3.50;;;2.83;;
23747;SDS011;12054;53.662;10.126;2022-11-09T04:29:42;3.83;;;2.60;;
23747;SDS011;12054;53.662;10.126;2022-11-09T04:32:08;2.80;;;1.98;;
23747;SDS011;12054;53.662;10.126;2022-11-09T04:34:33;6.68;;;2.58;;
23747;SDS011;12054;53.662;10.126;2022-11-09T04:36:59;4.63;;;2.40;;
23747;SDS011;12054;53.662;10.126;2022-11-09T04:39:25;3.72;;;2.03;;
23747;SDS011;12054;53.662;10.126;2022-11-09T04:41:50;3.60;;;1.98;;
23747;SDS011;12054;53.662;10.126;2022-11-09T04:44:16;4.50;;;1.83;;
23747;SDS011;12054;53.662;10.126;2022-11-09T04:46:41;2.55;;;2.10;;
23747;SDS011;12054;53.662;10.126;2022-11-09T04:49:07;3.05;;;2.00;;
23747;SDS011;12054;53.662;10.126;2022-11-09T04:51:32;3.33;;;1.90;;
23747;SDS011;12054;53.662;10.126;2022-11-09T04:53:58;4.03;;;2.00;;
23747;SDS011;12054;53.662;10.126;2022-11-09T04:56:23;2.53;;;2.03;;
23747;SDS011;12054;53.662;10.126;2022-11-09T04:58:49;3.83;;;1.90;;
23747;SDS011;12054;53.662;10.126;2022-11-09T05:01:14;4.78;;;2.15;;
23747;SDS011;12054;53.662;10.126;2022-11-09T05:03:40;4.30;;;2.05;;
23747;SDS011;12054;53.662;10.126;2022-11-09T05:06:06;2.38;;;2.00;;
23747;SDS011;12054;53.662;10.126;2022-11-09T05:08:54;3.80;;;2.15;;
23747;SDS011;12054;53.662;10.126;2022-11-09T05:11:20;3.88;;;2.03;;
23747;SDS011;12054;53.662;10.126;2022-11-09T05:13:46;4.15;;;1.83;;
23747;SDS011;12054;53.662;10.126;2022-11-09T05:16:12;3.45;;;2.08;;
23747;SDS011;12054;53.662;10.126;2022-11-09T05:18:38;2.20;;;1.63;;
23747;SDS011;12054;53.662;10.126;2022-11-09T05:21:04;3.53;;;2.00;;
23747;SDS011;12054;53.662;10.126;2022-11-09T05:23:29;4.32;;;2.00;;
23747;SDS011;12054;53.662;10.126;2022-11-09T05:26:14;3.75;;;2.03;;
23747;SDS011;12054;53.662;10.126;2022-11-09T05:28:40;2.53;;;1.67;;
23747;SDS011;12054;53.662;10.126;2022-11-09T05:31:05;3.35;;;2.40;;
23747;SDS011;12054;53.662;10.126;2022-11-09T05:33:31;3.00;;;1.92;;
23747;SDS011;12054;53.662;10.126;2022-11-09T05:35:57;3.72;;;1.70;;
23747;SDS011;12054;53.662;10.126;2022-11-09T05:38:23;2.58;;;2.10;;
23747;SDS011;12054;53.662;10.126;2022-11-09T05:40:52;3.92;;;1.92;;
23747;SDS011;12054;53.662;10.126;2022-11-09T05:43:18;3.17;;;1.92;;
23747;SDS011;12054;53.662;10.126;2022-11-09T05:45:44;2.47;;;1.98;;
23747;SDS011;12054;53.662;10.126;2022-11-09T05:48:11;3.03;;;1.90;;
23747;SDS011;12054;53.662;10.126;2022-11-09T05:50:38;6.78;;;2.20;;
23747;SDS011;12054;53.662;10.126;2022-11-09T05:53:05;3.45;;;2.03;;
23747;SDS011;12054;53.662;10.126;2022-11-09T05:55:31;2.25;;;1.70;;
23747;SDS011;12054;53.662;10.126;2022-11-09T05:57:57;3.08;;;1.88;;
23747;SDS011;12054;53.662;10.126;2022-11-09T06:00:22;3.38;;;2.10;;
23747;SDS011;12054;53.662;10.126;2022-11-09T06:02:48;2.13;;;1.88;;
23747;SDS011;12054;53.662;10.126;2022-11-09T06:05:14;5.22;;;2.17;;
23747;SDS011;12054;53.662;10.126;2022-11-09T06:07:40;2.25;;;1.75;;
23747;SDS011;12054;53.662;10.126;2022-11-09T06:10:06;4.82;;;2.00;;
23747;SDS011;12054;53.662;10.126;2022-11-09T06:12:32;2.17;;;1.80;;
23747;SDS011;12054;53.662;10.126;2022-11-09T06:14:58;4.60;;;1.80;;
23747;SDS011;12054;53.662;10.126;2022-11-09T06:17:23;2.80;;;1.90;;
23747;SDS011;12054;53.662;10.126;2022-11-09T06:19:49;2.78;;;1.70;;
23747;SDS011;12054;53.662;10.126;2022-11-09T06:22:14;3.00;;;1.75;;
23747;SDS011;12054;53.662;10.126;2022-11-09T06:24:40;2.97;;;1.98;;
23747;SDS011;12054;53.662;10.126;2022-11-09T06:27:06;3.03;;;1.90;;
23747;SDS011;12054;53.662;10.126;2022-11-09T06:29:31;4.25;;;2.58;;
23747;SDS011;12054;53.662;10.126;2022-11-09T06:31:57;3.70;;;2.10;;
23747;SDS011;12054;53.662;10.126;2022-11-09T06:34:22;3.42;;;2.08;;
23747;SDS011;12054;53.662;10.126;2022-11-09T06:36:48;3.47;;;1.85;;
23747;SDS011;12054;53.662;10.126;2022-11-09T06:39:14;3.72;;;2.20;;
23747;SDS011;12054;53.662;10.126;2022-11-09T06:41:39;5.47;;;2.28;;
23747;SDS011;12054;53.662;10.126;2022-11-09T06:44:05;5.28;;;2.03;;
23747;SDS011;12054;53.662;10.126;2022-11-09T06:46:31;4.15;;;1.95;;
23747;SDS011;12054;53.662;10.126;2022-11-09T06:48:56;3.17;;;2.13;;
23747;SDS011;12054;53.662;10.126;2022-11-09T06:51:22;4.15;;;1.80;;
23747;SDS011;12054;53.662;10.126;2022-11-09T06:53:48;3.53;;;1.80;;
23747;SDS011;12054;53.662;10.126;2022-11-09T06:56:14;5.00;;;2.28;;
23747;SDS011;12054;53.662;10.126;2022-11-09T06:58:39;4.53;;;2.10;;
23747;SDS011;12054;53.662;10.126;2022-11-09T07:01:12;3.35;;;1.80;;
23747;SDS011;12054;53.662;10.126;2022-11-09T07:03:41;3.15;;;1.70;;
23747;SDS011;12054;53.662;10.126;2022-11-09T07:06:07;2.70;;;2.00;;
23747;SDS011;12054;53.662;10.126;2022-11-09T07:08:34;3.17;;;1.75;;
23747;SDS011;12054;53.662;10.126;2022-11-09T07:11:08;3.25;;;1.98;;
23747;SDS011;12054;53.662;10.126;2022-11-09T07:13:36;3.53;;;2.03;;
23747;SDS011;12054;53.662;10.126;2022-11-09T07:16:02;2.38;;;1.92;;
23747;SDS011;12054;53.662;10.126;2022-11-09T07:18:29;2.67;;;1.90;;
23747;SDS011;12054;53.662;10.126;2022-11-09T07:20:54;5.25;;;2.00;;
23747;SDS011;12054;53.662;10.126;2022-11-09T07:23:20;3.80;;;2.10;;
23747;SDS011;12054;53.662;10.126;2022-11-09T07:25:46;4.18;;;1.98;;
23747;SDS011;12054;53.662;10.126;2022-11-09T07:28:11;4.72;;;2.20;;
23747;SDS011;12054;53.662;10.126;2022-11-09T07:30:37;2.55;;;1.80;;
23747;SDS011;12054;53.662;10.126;2022-11-09T07:33:08;3.58;;;2.03;;
23747;SDS011;12054;53.662;10.126;2022-11-09T07:35:40;4.25;;;2.08;;
23747;SDS011;12054;53.662;10.126;2022-11-09T07:38:05;3.35;;;2.10;;
23747;SDS011;12054;53.662;10.126;2022-11-09T07:40:31;4.55;;;2.08;;
23747;SDS011;12054;53.662;10.126;2022-11-09T07:43:00;5.85;;;1.90;;
23747;SDS011;12054;53.662;10.126;2022-11-09T07:45:26;5.10;;;2.17;;
23747;SDS011;12054;53.662;10.126;2022-11-09T07:47:56;5.07;;;2.00;;
23747;SDS011;12054;53.662;10.126;2022-11-09T07:50:23;3.10;;;1.88;;
23747;SDS011;12054;53.662;10.126;2022-11-09T07:52:49;4.18;;;2.10;;
23747;SDS011;12054;53.662;10.126;2022-11-09T07:55:15;4.32;;;2.38;;
23747;SDS011;12054;53.662;10.126;2022-11-09T07:57:41;2.63;;;1.80;;
23747;SDS011;12054;53.662;10.126;2022-11-09T08:00:08;3.67;;;1.98;;
23747;SDS011;12054;53.662;10.126;2022-11-09T08:02:35;3.05;;;1.85;;
23747;SDS011;12054;53.662;10.126;2022-11-09T08:05:00;3.92;;;2.00;;
23747;SDS011;12054;53.662;10.126;2022-11-09T08:07:27;4.55;;;2.10;;
23747;SDS011;12054;53.662;10.126;2022-11-09T08:09:53;5.13;;;1.98;;
23747;SDS011;12054;53.662;10.126;2022-11-09T08:12:19;8.02;;;2.22;;
23747;SDS011;12054;53.662;10.126;2022-11-09T08:14:44;4.63;;;1.85;;
23747;SDS011;12054;53.662;10.126;2022-11-09T08:17:10;4.97;;;2.00;;
23747;SDS011;12054;53.662;10.126;2022-11-09T08:19:35;5.43;;;1.70;;
23747;SDS011;12054;53.662;10.126;2022-11-09T08:22:01;4.25;;;1.80;;
23747;SDS011;12054;53.662;10.126;2022-11-09T08:24:26;2.78;;;1.80;;
23747;SDS011;12054;53.662;10.126;2022-11-09T08:26:52;3.35;;;1.88;;
23747;SDS011;12054;53.662;10.126;2022-11-09T08:29:17;4.45;;;1.70;;
23747;SDS011;12054;53.662;10.126;2022-11-09T08:31:43;5.38;;;2.00;;
23747;SDS011;12054;53.662;10.126;2022-11-09T08:34:10;4.10;;;1.48;;
23747;SDS011;12054;53.662;10.126;2022-11-09T08:36:37;5.43;;;1.83;;
23747;SDS011;12054;53.662;10.126;2022-11-09T08:39:03;4.47;;;1.67;;
23747;SDS011;12054;53.662;10.126;2022-11-09T08:41:29;3.17;;;1.70;;
23747;SDS011;12054;53.662;10.126;2022-11-09T08:43:54;3.45;;;1.80;;
23747;SDS011;12054;53.662;10.126;2022-11-09T08:46:20;3.75;;;1.85;;
23747;SDS011;12054;53.662;10.126;2022-11-09T08:48:46;3.50;;;1.77;;
23747;SDS011;12054;53.662;10.126;2022-11-09T08:51:11;4.88;;;1.60;;
23747;SDS011;12054;53.662;10.126;2022-11-09T08:53:37;4.18;;;1.60;;
23747;SDS011;12054;53.662;10.126;2022-11-09T08:56:04;4.85;;;1.70;;
23747;SDS011;12054;53.662;10.126;2022-11-09T08:58:31;3.85;;;1.35;;
23747;SDS011;12054;53.662;10.126;2022-11-09T09:00:57;3.95;;;1.35;;
23747;SDS011;12054;53.662;10.126;2022-11-09T09:03:23;2.40;;;1.42;;
23747;SDS011;12054;53.662;10.126;2022-11-09T09:05:48;3.47;;;1.52;;
23747;SDS011;12054;53.662;10.126;2022-11-09T09:08:14;5.80;;;2.30;;
23747;SDS011;12054;53.662;10.126;2022-11-09T09:10:40;6.93;;;1.60;;
23747;SDS011;12054;53.662;10.126;2022-11-09T09:13:06;2.97;;;1.30;;
23747;SDS011;12054;53.662;10.126;2022-11-09T09:15:32;3.78;;;1.80;;
23747;SDS011;12054;53.662;10.126;2022-11-09T09:17:59;4.07;;;1.50;;
23747;SDS011;12054;53.662;10.126;2022-11-09T09:20:25;4.43;;;1.75;;
23747;SDS011;12054;53.662;10.126;2022-11-09T09:22:51;3.88;;;1.35;;
23747;SDS011;12054;53.662;10.126;2022-11-09T09:25:16;4.43;;;1.75;;
23747;SDS011;12054;53.662;10.126;2022-11-09T09:27:42;4.05;;;1.73;;
23747;SDS011;12054;53.662;10.126;2022-11-09T09:30:09;6.60;;;1.70;;
23747;SDS011;12054;53.662;10.126;2022-11-09T09:32:35;4.75;;;1.27;;
23747;SDS011;12054;53.662;10.126;2022-11-09T09:35:00;5.07;;;1.70;;
23747;SDS011;12054;53.662;10.126;2022-11-09T09:37:26;3.92;;;1.35;;
23747;SDS011;12054;53.662;10.126;2022-11-09T09:39:51;3.15;;;1.33;;
23747;SDS011;12054;53.662;10.126;2022-11-09T09:42:18;6.00;;;1.40;;
23747;SDS011;12054;53.662;10.126;2022-11-09T09:44:51;7.03;;;1.55;;
23747;SDS011;12054;53.662;10.126;2022-11-09T09:47:40;6.82;;;1.90;;
23747;SDS011;12054;53.662;10.126;2022-11-09T09:50:25;7.45;;;1.80;;
23747;SDS011;12054;53.662;10.126;2022-11-09T09:52:57;5.90;;;1.67;;
23747;SDS011;12054;53.662;10.126;2022-11-09T09:56:01;5.18;;;1.85;;
23747;SDS011;12054;53.662;10.126;2022-11-09T09:58:29;5.22;;;1.60;;
23747;SDS011;12054;53.662;10.126;2022-11-09T10:00:59;6.63;;;1.75;;
23747;SDS011;12054;53.662;10.126;2022-11-09T10:03:41;4.38;;;1.70;;
23747;SDS011;12054;53.662;10.126;2022-11-09T10:09:10;5.45;;;1.85;;
23747;SDS011;12054;53.662;10.126;2022-11-09T10:11:53;6.22;;;1.60;;
23747;SDS011;12054;53.662;10.126;2022-11-09T10:23:02;7.30;;;2.00;;
23747;SDS011;12054;53.662;10.126;2022-11-09T10:25:32;8.32;;;2.25;;
23747;SDS011;12054;53.662;10.126;2022-11-09T10:28:03;9.35;;;1.83;;
23747;SDS011;12054;53.662;10.126;2022-11-09T10:30:37;6.78;;;1.48;;
23747;SDS011;12054;53.662;10.126;2022-11-09T10:38:27;5.45;;;1.58;;
23747;SDS011;12054;53.662;10.126;2022-11-09T10:41:03;5.65;;;1.55;;
23747;SDS011;12054;53.662;10.126;2022-11-09T10:43:47;4.47;;;1.70;;
23747;SDS011;12054;53.662;10.126;2022-11-09T10:46:13;6.22;;;1.50;;
23747;SDS011;12054;53.662;10.126;2022-11-09T10:48:39;4.28;;;1.30;;
23747;SDS011;12054;53.662;10.126;2022-11-09T10:51:27;4.35;;;1.60;;
23747;SDS011;12054;53.662;10.126;2022-11-09T10:54:14;3.95;;;1.33;;
23747;SDS011;12054;53.662;10.126;2022-11-09T10:56:45;4.68;;;1.60;;
23747;SDS011;12054;53.662;10.126;2022-11-09T11:05:34;6.30;;;1.50;;
23747;SDS011;12054;53.662;10.126;2022-11-09T11:07:41;5.00;;;1.67;;
23747;SDS011;12054;53.662;10.126;2022-11-09T11:10:17;6.13;;;1.63;;
23747;SDS011;12054;53.662;10.126;2022-11-09T11:12:51;3.35;;;1.80;;
23747;SDS011;12054;53.662;10.126;2022-11-09T11:15:38;5.45;;;1.60;;
23747;SDS011;12054;53.662;10.126;2022-11-09T11:18:24;3.58;;;1.63;;
23747;SDS011;12054;53.662;10.126;2022-11-09T11:21:33;7.55;;;1.77;;
23747;SDS011;12054;53.662;10.126;2022-11-09T11:23:41;4.90;;;1.65;;
23747;SDS011;12054;53.662;10.126;2022-11-09T11:28:52;4.10;;;1.23;;
23747;SDS011;12054;53.662;10.126;2022-11-09T11:31:27;5.50;;;1.63;;
23747;SDS011;12054;53.662;10.126;2022-11-09T11:33:53;3.85;;;1.10;;
23747;SDS011;12054;53.662;10.126;2022-11-09T11:36:21;4.65;;;1.50;;
23747;SDS011;12054;53.662;10.126;2022-11-09T11:44:34;6.00;;;1.65;;
23747;SDS011;12054;53.662;10.126;2022-11-09T11:47:17;9.95;;;1.75;;
23747;SDS011;12054;53.662;10.126;2022-11-09T11:52:32;5.60;;;1.75;;
23747;SDS011;12054;53.662;10.126;2022-11-09T11:58:14;4.82;;;1.60;;
23747;SDS011;12054;53.662;10.126;2022-11-09T12:00:57;5.13;;;1.33;;
23747;SDS011;12054;53.662;10.126;2022-11-09T12:14:11;4.57;;;1.73;;
23747;SDS011;12054;53.662;10.126;2022-11-09T12:30:17;5.85;;;1.50;;
23747;SDS011;12054;53.662;10.126;2022-11-09T12:35:34;6.07;;;1.45;;
23747;SDS011;12054;53.662;10.126;2022-11-09T12:40:53;5.43;;;1.40;;
23747;SDS011;12054;53.662;10.126;2022-11-09T12:43:29;5.80;;;1.33;;
23747;SDS011;12054;53.662;10.126;2022-11-09T12:46:09;4.82;;;1.52;;
23747;SDS011;12054;53.662;10.126;2022-11-09T12:48:37;5.10;;;1.55;;
23747;SDS011;12054;53.662;10.126;2022-11-09T12:51:05;4.70;;;1.40;;
23747;SDS011;12054;53.662;10.126;2022-11-09T12:53:36;6.03;;;1.40;;
23747;SDS011;12054;53.662;10.126;2022-11-09T12:58:49;4.22;;;1.30;;
23747;SDS011;12054;53.662;10.126;2022-11-09T13:03:59;7.07;;;1.73;;
23747;SDS011;12054;53.662;10.126;2022-11-09T13:06:27;3.13;;;1.45;;
23747;SDS011;12054;53.662;10.126;2022-11-09T13:09:03;5.20;;;1.60;;
23747;SDS011;12054;53.662;10.126;2022-11-09T13:11:34;4.82;;;1.20;;
23747;SDS011;12054;53.662;10.126;2022-11-09T13:16:53;4.65;;;1.48;;
23747;SDS011;12054;53.662;10.126;2022-11-09T13:21:58;4.45;;;1.80;;
23747;SDS011;12054;53.662;10.126;2022-11-09T13:26:58;5.55;;;1.52;;
23747;SDS011;12054;53.662;10.126;2022-11-09T13:39:59;5.82;;;1.35;;
23747;SDS011;12054;53.662;10.126;2022-11-09T13:42:32;5.22;;;1.70;;
23747;SDS011;12054;53.662;10.126;2022-11-09T13:45:42;3.05;;;1.38;;
23747;SDS011;12054;53.662;10.126;2022-11-09T13:47:49;5.03;;;1.60;;
23747;SDS011;12054;53.662;10.126;2022-11-09T13:50:16;3.28;;;1.02;;
23747;SDS011;12054;53.662;10.126;2022-11-09T13:55:23;5.60;;;1.33;;
23747;SDS011;12054;53.662;10.126;2022-11-09T13:57:51;5.30;;;1.38;;
23747;SDS011;12054;53.662;10.126;2022-11-09T14:00:20;9.05;;;1.60;;
23747;SDS011;12054;53.662;10.126;2022-11-09T14:03:02;3.70;;;1.48;;
23747;SDS011;12054;53.662;10.126;2022-11-09T14:05:41;2.75;;;1.30;;
23747;SDS011;12054;53.662;10.126;2022-11-09T14:08:08;6.50;;;1.40;;
23747;SDS011;12054;53.662;10.126;2022-11-09T14:11:12;12.18;;;2.17;;
23747;SDS011;12054;53.662;10.126;2022-11-09T14:17:00;5.63;;;1.80;;
23747;SDS011;12054;53.662;10.126;2022-11-09T14:19:36;9.00;;;2.13;;
23747;SDS011;12054;53.662;10.126;2022-11-09T14:22:22;4.82;;;1.40;;
23747;SDS011;12054;53.662;10.126;2022-11-09T14:24:48;7.05;;;1.50;;
23747;SDS011;12054;53.662;10.126;2022-11-09T14:27:15;5.95;;;1.70;;
23747;SDS011;12054;53.662;10.126;2022-11-09T14:29:48;6.32;;;1.52;;
23747;SDS011;12054;53.662;10.126;2022-11-09T14:32:26;4.93;;;1.20;;
23747;SDS011;12054;53.662;10.126;2022-11-09T14:34:52;3.55;;;1.55;;
23747;SDS011;12054;53.662;10.126;2022-11-09T14:37:32;3.45;;;1.30;;
23747;SDS011;12054;53.662;10.126;2022-11-09T14:40:00;5.80;;;1.60;;
23747;SDS011;12054;53.662;10.126;2022-11-09T14:42:26;4.70;;;1.90;;
23747;SDS011;12054;53.662;10.126;2022-11-09T14:44:51;6.70;;;1.35;;
23747;SDS011;12054;53.662;10.126;2022-11-09T14:47:18;4.63;;;1.50;;
23747;SDS011;12054;53.662;10.126;2022-11-09T14:49:52;6.35;;;1.50;;
23747;SDS011;12054;53.662;10.126;2022-11-09T14:52:20;2.63;;;1.50;;
23747;SDS011;12054;53.662;10.126;2022-11-09T14:54:53;6.68;;;1.80;;
23747;SDS011;12054;53.662;10.126;2022-11-09T14:57:19;3.15;;;1.50;;
23747;SDS011;12054;53.662;10.126;2022-11-09T14:59:47;3.95;;;1.85;;
23747;SDS011;12054;53.662;10.126;2022-11-09T15:02:13;4.03;;;1.55;;
23747;SDS011;12054;53.662;10.126;2022-11-09T15:07:24;5.50;;;1.80;;
23747;SDS011;12054;53.662;10.126;2022-11-09T15:09:55;3.47;;;1.60;;
23747;SDS011;12054;53.662;10.126;2022-11-09T15:12:23;4.10;;;1.70;;
23747;SDS011;12054;53.662;10.126;2022-11-09T15:14:52;6.50;;;1.88;;
23747;SDS011;12054;53.662;10.126;2022-11-09T15:19:56;4.93;;;1.98;;
23747;SDS011;12054;53.662;10.126;2022-11-09T15:27:56;3.72;;;2.00;;
23747;SDS011;12054;53.662;10.126;2022-11-09T15:30:35;5.00;;;2.05;;
23747;SDS011;12054;53.662;10.126;2022-11-09T15:35:48;9.05;;;3.33;;
23747;SDS011;12054;53.662;10.126;2022-11-09T15:41:14;6.63;;;2.17;;
23747;SDS011;12054;53.662;10.126;2022-11-09T15:43:42;6.13;;;2.28;;
23747;SDS011;12054;53.662;10.126;2022-11-09T15:46:15;5.50;;;2.30;;
23747;SDS011;12054;53.662;10.126;2022-11-09T15:48:44;5.18;;;2.30;;
23747;SDS011;12054;53.662;10.126;2022-11-09T15:51:10;5.68;;;2.45;;
23747;SDS011;12054;53.662;10.126;2022-11-09T15:53:36;11.90;;;2.78;;
23747;SDS011;12054;53.662;10.126;2022-11-09T15:56:02;8.23;;;2.70;;
23747;SDS011;12054;53.662;10.126;2022-11-09T15:58:28;8.40;;;2.53;;
23747;SDS011;12054;53.662;10.126;2022-11-09T16:00:54;6.68;;;2.60;;
23747;SDS011;12054;53.662;10.126;2022-11-09T16:03:19;4.28;;;2.20;;
23747;SDS011;12054;53.662;10.126;2022-11-09T16:05:45;5.45;;;2.25;;
23747;SDS011;12054;53.662;10.126;2022-11-09T16:08:11;5.75;;;2.33;;
23747;SDS011;12054;53.662;10.126;2022-11-09T16:10:38;5.20;;;2.22;;
23747;SDS011;12054;53.662;10.126;2022-11-09T16:13:05;7.13;;;2.45;;
23747;SDS011;12054;53.662;10.126;2022-11-09T16:15:32;5.90;;;2.13;;
23747;SDS011;12054;53.662;10.126;2022-11-09T16:17:59;6.90;;;2.53;;
23747;SDS011;12054;53.662;10.126;2022-11-09T16:20:25;4.38;;;2.42;;
23747;SDS011;12054;53.662;10.126;2022-11-09T16:22:51;5.47;;;2.35;;
23747;SDS011;12054;53.662;10.126;2022-11-09T16:25:16;4.43;;;1.95;;
23747;SDS011;12054;53.662;10.126;2022-11-09T16:27:43;6.78;;;2.83;;
23747;SDS011;12054;53.662;10.126;2022-11-09T16:30:09;6.25;;;2.22;;
23747;SDS011;12054;53.662;10.126;2022-11-09T16:32:36;7.13;;;2.20;;
23747;SDS011;12054;53.662;10.126;2022-11-09T16:35:01;3.38;;;2.15;;
23747;SDS011;12054;53.662;10.126;2022-11-09T16:37:28;5.53;;;2.30;;
23747;SDS011;12054;53.662;10.126;2022-11-09T16:39:58;4.68;;;2.20;;
23747;SDS011;12054;53.662;10.126;2022-11-09T16:42:24;5.47;;;2.60;;